Ludington, MI

9:24 AM EDT on October 21, 2019 (GMT -0400)
Mason County

Weather History for KLDM - August, 2019

Change the Weather History Date:

Tuesday, August 6, 2019

  Actual Average Record
Temperature  
Mean Temperature 68 °F -  
Max Temperature 74 °F 79 °F 89 °F (2001)
Min Temperature 62 °F 56 °F 42 °F (2004)
Cooling Degree Days 3    
Growing Degree Days 18 (Base 50)    
Moisture  
Dew Point 65 °F    
Average Humidity 87    
Maximum Humidity 98    
Minimum Humidity 66    
Precipitation  
Precipitation 0.10 in - - ()
Sea Level Pressure  
Sea Level Pressure 29.80 in    
Wind  
Wind Speed 3 mph (NW)    
Max Wind Speed 9 mph    
Max Gust Speed -    
Visibility 9 miles    
Events Rain    
Averages and records for this station are not official NWS values.
T = Trace of Precipitation, MM = Missing Value Source: NWS Daily Summary

Daily Weather History Graph

Daily Weather History Graph

Search for Another Location

Airport or City:

Astronomy

Aug. 06, 2019 Rise Set
Actual Time 6:39 AM EDT 9:03 PM EDT
Civil Twilight 6:06 AM EDT 9:35 PM EDT
Nautical Twilight 5:26 AM EDT 10:15 PM EDT
Astronomical Twilight 4:41 AM EDT 11:00 PM EDT
Moon 1:16 PM EDT (8/6) 12:04 AM EDT (8/6)
Length of Visible Light 15h 28m
Length of Day
14h 23m
Waxing Crescent, 38% of the Moon is Illuminated
Aug 6
Waxing Crescent
Aug 7
First Quarter
Aug 15
Full
Aug 23
Last Quarter
Aug 30
New

Hourly Weather History & Observations

Time (EDT) Temp. Dew Point Humidity Pressure Visibility Wind Dir Wind Speed Gust Speed Precip Events Conditions
12:17 AM 66.7 °F 64.9 °F 94% 29.78 in 10.0 mi SSE 5.8 mph - 0.03 in Rain Rain
12:35 AM 66.2 °F 65.3 °F 97% 29.75 in 10.0 mi SE 4.6 mph - 0.07 in Rain Light Rain
12:36 AM 66.2 °F 65.3 °F 97% 29.75 in 10.0 mi SE 4.6 mph - 0.07 in Rain Light Rain
12:55 AM 65.7 °F 64.8 °F 97% 29.78 in 10.0 mi NNW 3.5 mph - 0.08 in Rain Light Rain
1:15 AM 65.5 °F 64.6 °F 97% 29.78 in 10.0 mi Calm Calm - 0.01 in Rain Light Rain
1:38 AM 65.3 °F 64.4 °F 97% 29.79 in 7.0 mi Calm Calm - 0.01 in Rain Light Rain
1:56 AM 65.1 °F 64.4 °F 98% 29.79 in 10.0 mi Calm Calm - 0.02 in   Mostly Cloudy
2:15 AM 64.6 °F 63.7 °F 97% 29.77 in 7.0 mi Calm Calm - N/A   Scattered Clouds
2:16 AM 64.6 °F 63.9 °F 98% 29.78 in 7.0 mi Calm Calm - N/A   Scattered Clouds
2:35 AM 65.5 °F 64.6 °F 97% 29.77 in 10.0 mi Calm Calm - N/A   Mostly Cloudy
2:59 AM 65.3 °F 64.6 °F 98% 29.77 in 10.0 mi Calm Calm - N/A   Mostly Cloudy
3:17 AM 65.5 °F 64.8 °F 98% 29.77 in 10.0 mi Calm Calm - N/A   Overcast
3:35 AM 65.8 °F 65.1 °F 98% 29.77 in 10.0 mi Calm Calm - N/A   Overcast
3:36 AM 65.8 °F 65.1 °F 98% 29.77 in 10.0 mi Calm Calm - N/A   Overcast
3:55 AM 66.4 °F 65.5 °F 97% 29.77 in 10.0 mi SW 4.6 mph - N/A   Overcast
4:15 AM 67.1 °F 66.2 °F 97% 29.78 in 10.0 mi Calm Calm - N/A   Overcast
4:38 AM 68.2 °F 66.9 °F 96% 29.77 in 10.0 mi West 4.6 mph - N/A   Overcast
4:56 AM 68.2 °F 66.6 °F 95% 29.77 in 10.0 mi West 5.8 mph - N/A   Overcast
5:15 AM 68.2 °F 66.7 °F 95% 29.78 in 10.0 mi WNW 3.5 mph - N/A   Overcast
5:16 AM 68.2 °F 66.6 °F 95% 29.78 in 10.0 mi WNW 3.5 mph - N/A   Overcast
5:35 AM 68.0 °F 66.2 °F 94% 29.77 in 10.0 mi West 4.6 mph - N/A   Overcast
5:59 AM 68.0 °F 66.4 °F 95% 29.78 in 10.0 mi Calm Calm - N/A   Overcast
6:17 AM 67.6 °F 66.4 °F 96% 29.78 in 7.0 mi WNW 3.5 mph - N/A   Drizzle
6:35 AM 67.5 °F 66.2 °F 96% 29.78 in 10.0 mi WNW 4.6 mph - N/A   Overcast
6:36 AM 67.5 °F 66.2 °F 96% 29.78 in 10.0 mi WNW 4.6 mph - N/A   Overcast
6:55 AM 67.3 °F 66.2 °F 96% 29.78 in 10.0 mi NW 3.5 mph - N/A   Overcast
6:56 AM 67.1 °F 66.2 °F 97% 29.78 in 10.0 mi NNW 3.5 mph - N/A   Overcast
7:15 AM 67.1 °F 65.8 °F 96% 29.78 in 10.0 mi Calm Calm - N/A   Overcast
7:20 AM 67.1 °F 66.0 °F 96% 29.78 in 10.0 mi NW 3.5 mph - N/A   Overcast
7:38 AM 67.1 °F 65.7 °F 95% 29.79 in 10.0 mi NW 4.6 mph - N/A   Overcast
7:56 AM 67.3 °F 65.5 °F 94% 29.79 in 10.0 mi NNW 3.5 mph - N/A   Overcast
8:15 AM 67.3 °F 65.3 °F 93% 29.79 in 10.0 mi Calm Calm - N/A   Overcast
8:35 AM 68.2 °F 65.8 °F 92% 29.79 in 10.0 mi Calm Calm - N/A   Mostly Cloudy
8:36 AM 68.2 °F 65.7 °F 92% 29.79 in 10.0 mi Calm Calm - N/A   Scattered Clouds
8:59 AM 68.5 °F 65.3 °F 89% 29.79 in 10.0 mi Calm Calm - N/A   Scattered Clouds
9:17 AM 69.1 °F 65.7 °F 89% 29.80 in 10.0 mi NW 3.5 mph - N/A   Scattered Clouds
9:35 AM 69.6 °F 65.3 °F 86% 29.80 in 10.0 mi WNW 4.6 mph - N/A   Scattered Clouds
9:55 AM 69.6 °F 65.1 °F 86% 29.80 in 10.0 mi NNW 3.5 mph - N/A   Scattered Clouds
10:15 AM 69.8 °F 66.0 °F 88% 29.81 in 10.0 mi NNW 3.5 mph - N/A   Mostly Cloudy
10:19 AM 69.8 °F 65.5 °F 86% 29.81 in 10.0 mi North 3.5 mph - N/A   Overcast
10:38 AM 69.3 °F 64.8 °F 86% 29.81 in 10.0 mi Calm Calm - N/A   Overcast
10:56 AM 70.0 °F 65.7 °F 86% 29.81 in 10.0 mi North 3.5 mph - N/A   Overcast
11:15 AM 70.0 °F 65.8 °F 87% 29.81 in 10.0 mi North 4.6 mph - N/A   Overcast
11:35 AM 70.3 °F 65.7 °F 85% 29.81 in 10.0 mi Calm Calm - N/A   Overcast
11:36 AM 70.2 °F 65.5 °F 85% 29.81 in 10.0 mi Calm Calm - N/A   Overcast
11:59 AM 70.9 °F 65.1 °F 82% 29.81 in 10.0 mi Calm Calm - N/A   Overcast
12:17 PM 72.9 °F 65.3 °F 77% 29.82 in 10.0 mi Calm Calm - N/A   Mostly Cloudy
12:35 PM 72.1 °F 65.3 °F 79% 29.82 in 10.0 mi Calm Calm - N/A   Overcast
12:55 PM 73.9 °F 66.0 °F 76% 29.81 in 10.0 mi WSW 3.5 mph - N/A   Mostly Cloudy
12:56 PM 74.3 °F 66.0 °F 75% 29.81 in 10.0 mi SW 3.5 mph - N/A   Mostly Cloudy
1:15 PM 72.5 °F 66.0 °F 80% 29.81 in 10.0 mi WSW 5.8 mph - N/A   Mostly Cloudy
1:20 PM 74.1 °F 67.1 °F 79% 29.81 in 10.0 mi WSW 6.9 mph - N/A   Mostly Cloudy
1:38 PM 74.5 °F 66.6 °F 76% 29.81 in 10.0 mi WNW 6.9 mph - N/A   Mostly Cloudy
1:56 PM 74.5 °F 66.6 °F 76% 29.81 in 10.0 mi WNW 5.8 mph - N/A   Mostly Cloudy
2:15 PM 74.8 °F 66.6 °F 75% 29.81 in 10.0 mi WSW 8.1 mph - N/A   Scattered Clouds
2:35 PM 74.3 °F 65.5 °F 74% 29.81 in 10.0 mi West 5.8 mph - N/A   Clear
2:59 PM 74.5 °F 65.7 °F 74% 29.81 in 10.0 mi West 9.2 mph - N/A   Clear
3:17 PM 74.3 °F 65.8 °F 75% 29.81 in 10.0 mi WNW 6.9 mph - N/A   Clear
3:35 PM 73.6 °F 65.5 °F 76% 29.82 in 10.0 mi NW 6.9 mph - N/A   Clear
3:55 PM 74.7 °F 66.0 °F 74% 29.82 in 10.0 mi West 6.9 mph - N/A   Clear
4:15 PM 73.8 °F 65.8 °F 76% 29.82 in 10.0 mi NW 4.6 mph - N/A   Scattered Clouds
4:38 PM 73.6 °F 65.5 °F 76% 29.82 in 10.0 mi WNW 6.9 mph - N/A   Scattered Clouds
4:56 PM 73.6 °F 65.5 °F 76% 29.81 in 10.0 mi WNW 6.9 mph - N/A   Clear
5:15 PM 74.1 °F 66.2 °F 76% 29.81 in 10.0 mi NW 8.1 mph - N/A   Clear
5:16 PM 74.1 °F 66.2 °F 76% 29.81 in 10.0 mi NW 8.1 mph - N/A   Clear
5:35 PM 74.1 °F 65.7 °F 75% 29.81 in 10.0 mi North 8.1 mph - N/A   Clear
5:59 PM 73.4 °F 64.8 °F 74% 29.81 in 10.0 mi NW 5.8 mph - N/A   Clear
6:17 PM 73.9 °F 64.2 °F 72% 29.81 in 10.0 mi North 6.9 mph - N/A   Clear
6:35 PM 74.3 °F 62.8 °F 67% 29.81 in 10.0 mi NW 3.5 mph - N/A   Clear
6:36 PM 74.3 °F 62.8 °F 67% 29.81 in 10.0 mi NW 4.6 mph - N/A   Clear
6:55 PM 74.3 °F 63.3 °F 68% 29.80 in 10.0 mi NW 3.5 mph - N/A   Clear
7:15 PM 74.3 °F 62.2 °F 66% 29.80 in 10.0 mi NNW 3.5 mph - N/A   Clear
7:38 PM 73.9 °F 62.4 °F 67% 29.80 in 10.0 mi NNW 4.6 mph - N/A   Clear
7:56 PM 72.7 °F 62.6 °F 71% 29.80 in 10.0 mi NW 4.6 mph - N/A   Clear
8:15 PM 71.4 °F 63.1 °F 75% 29.80 in 10.0 mi Calm Calm - N/A   Clear
8:16 PM 71.2 °F 63.3 °F 76% 29.80 in 10.0 mi NNW 3.5 mph - N/A   Clear
8:35 PM 69.8 °F 64.0 °F 82% 29.80 in 10.0 mi NNW 3.5 mph - N/A   Clear
8:59 PM 68.0 °F 64.8 °F 89% 29.80 in 10.0 mi North 3.5 mph - N/A   Clear
9:17 PM 66.4 °F 64.6 °F 94% 29.80 in 10.0 mi Calm Calm - N/A   Clear
9:35 PM 65.5 °F 64.4 °F 96% 29.80 in 10.0 mi Calm Calm - N/A   Clear
9:36 PM 65.3 °F 64.4 °F 97% 29.80 in 10.0 mi Calm Calm - N/A   Clear
9:55 PM 65.1 °F 64.4 °F 98% 29.81 in 10.0 mi Calm Calm - N/A   Clear
9:56 PM 65.1 °F 64.2 °F 97% 29.81 in 10.0 mi Calm Calm - N/A   Clear
10:15 PM 64.0 °F 63.1 °F 97% 29.81 in 2.5 mi Calm Calm - N/A   Clear
10:38 PM 63.5 °F 62.8 °F 97% 29.81 in 0.8 mi Calm Calm - N/A   Mist
10:56 PM 63.7 °F 62.8 °F 97% 29.81 in 1.8 mi Calm Calm - N/A   Overcast
11:15 PM 63.5 °F 62.8 °F 97% 29.81 in 4.0 mi Calm Calm - N/A   Overcast
11:16 PM 63.5 °F 62.6 °F 97% 29.81 in 4.0 mi Calm Calm - N/A   Overcast
11:35 PM 63.0 °F 62.2 °F 97% 29.81 in 4.0 mi Calm Calm - N/A   Overcast
11:36 PM 62.8 °F 62.1 °F 97% 29.81 in 4.0 mi Calm Calm - N/A   Overcast
11:59 PM 63.1 °F 62.4 °F 97% 29.82 in 7.0 mi Calm Calm - N/A   Overcast